createdAt,value
2019-05-06T00:00:27.074Z,61.10
2019-05-06T00:02:56.940Z,63.20
2019-05-06T00:05:27.812Z,63.00
2019-05-06T00:07:59.713Z,62.70
2019-05-06T00:10:33.963Z,62.80
2019-05-06T00:13:04.584Z,64.30
2019-05-06T00:15:34.636Z,64.40
2019-05-06T00:18:04.698Z,64.40
2019-05-06T00:20:35.164Z,66.00
2019-05-06T00:23:09.587Z,63.70
2019-05-06T00:25:56.234Z,63.00
2019-05-06T00:28:27.749Z,63.00
2019-05-06T00:31:10.379Z,64.00
2019-05-06T00:33:34.134Z,63.80
2019-05-06T00:36:04.724Z,63.00
2019-05-06T00:38:34.862Z,63.30
2019-05-06T00:41:14.332Z,62.60
2019-05-06T00:43:43.774Z,62.00
2019-05-06T00:46:13.920Z,62.20
2019-05-06T00:48:44.912Z,62.10
2019-05-06T00:51:15.680Z,61.50
2019-05-06T00:53:47.016Z,61.90
2019-05-06T00:56:16.020Z,60.30
2019-05-06T00:58:45.668Z,61.40
2019-05-06T01:01:25.889Z,60.30
2019-05-06T01:03:45.974Z,60.80
2019-05-06T01:06:15.727Z,60.40
2019-05-06T01:08:45.724Z,60.30
2019-05-06T01:11:15.614Z,61.60
2019-05-06T01:13:46.983Z,61.90
2019-05-06T01:16:17.683Z,61.20
2019-05-06T01:18:47.325Z,61.30
2019-05-06T01:21:17.084Z,61.40
2019-05-06T01:23:46.850Z,62.10
2019-05-06T01:26:19.074Z,62.80
2019-05-06T01:28:48.861Z,62.50
2019-05-06T01:31:18.718Z,63.30
2019-05-06T01:33:48.409Z,63.10
2019-05-06T01:36:18.036Z,64.20
2019-05-06T01:38:58.688Z,64.30
2019-05-06T01:41:39.140Z,64.00
2019-05-06T01:44:08.862Z,64.00
2019-05-06T01:46:38.657Z,64.10
2019-05-06T01:49:09.147Z,64.20
2019-05-06T01:51:39.016Z,64.90
2019-05-06T01:54:08.831Z,64.40
2019-05-06T01:56:38.727Z,64.10
2019-05-06T01:59:08.435Z,63.90
2019-05-06T02:01:38.280Z,64.90
2019-05-06T02:04:08.123Z,64.80
2019-05-06T02:06:37.853Z,64.20
2019-05-06T02:11:54.806Z,64.40
2019-05-06T02:14:24.730Z,62.50
2019-05-06T02:16:54.891Z,61.90
2019-05-06T02:19:24.607Z,63.00
2019-05-06T02:21:55.993Z,63.10
2019-05-06T02:24:28.305Z,62.70
2019-05-06T02:26:57.246Z,62.80
2019-05-06T02:29:35.081Z,63.30
2019-05-06T02:32:24.454Z,62.90
2019-05-06T02:34:58.845Z,63.60
2019-05-06T02:37:46.605Z,62.30
2019-05-06T02:40:25.564Z,62.50
2019-05-06T02:42:55.536Z,62.00
2019-05-06T02:45:25.566Z,61.30
2019-05-06T02:47:57.086Z,60.90
2019-05-06T02:50:46.847Z,60.90
2019-05-06T02:53:19.395Z,62.30
2019-05-06T02:55:48.231Z,62.40
2019-05-06T02:58:18.041Z,63.30
2019-05-06T03:00:47.664Z,61.90
2019-05-06T03:03:17.488Z,62.00
2019-05-06T03:05:48.464Z,61.90
2019-05-06T03:08:18.240Z,61.70
2019-05-06T03:10:48.098Z,61.70
2019-05-06T03:13:18.090Z,61.40
2019-05-06T03:15:47.841Z,62.30
2019-05-06T03:18:17.756Z,62.10
2019-05-06T03:20:58.245Z,61.20
2019-05-06T03:23:29.635Z,60.90
2019-05-06T03:25:58.488Z,61.10
2019-05-06T03:28:28.208Z,62.10
2019-05-06T03:30:57.990Z,62.30
2019-05-06T03:33:46.603Z,63.00
2019-05-06T03:36:13.789Z,61.80
2019-05-06T03:38:29.782Z,62.10
2019-05-06T03:41:02.800Z,63.20
2019-05-06T03:43:33.652Z,64.10
2019-05-06T03:46:06.424Z,64.30
2019-05-06T03:48:43.869Z,63.00
2019-05-06T03:51:13.507Z,65.70
2019-05-06T03:53:44.301Z,65.90
2019-05-06T03:56:19.676Z,66.60
2019-05-06T03:58:49.836Z,66.20
2019-05-06T04:01:23.660Z,65.80
2019-05-06T04:03:56.962Z,66.50
2019-05-06T04:06:24.300Z,65.50
2019-05-06T04:08:55.034Z,66.20
2019-05-06T04:11:24.850Z,66.50
2019-05-06T04:13:55.903Z,65.60
2019-05-06T04:16:44.143Z,65.60
2019-05-06T04:19:15.768Z,66.50
2019-05-06T04:21:53.192Z,65.90
2019-05-06T04:24:27.642Z,66.40
2019-05-06T04:27:18.283Z,66.10
2019-05-06T04:30:07.765Z,67.10
2019-05-06T04:32:38.224Z,66.80
2019-05-06T04:35:08.213Z,67.30
2019-05-06T04:37:38.453Z,67.50
2019-05-06T04:40:08.523Z,67.60
2019-05-06T04:42:38.712Z,67.00
2019-05-06T04:45:09.008Z,66.60
2019-05-06T04:47:43.407Z,66.20
2019-05-06T04:50:14.031Z,66.50
2019-05-06T04:52:43.748Z,67.70
2019-05-06T04:55:14.867Z,68.20
2019-05-06T04:57:44.617Z,68.80
2019-05-06T05:00:14.623Z,68.60
2019-05-06T05:02:46.360Z,69.10
2019-05-06T05:05:15.760Z,69.30
2019-05-06T05:07:46.505Z,70.10
2019-05-06T05:10:17.986Z,69.90
2019-05-06T05:12:59.879Z,70.20
2019-05-06T05:15:32.530Z,69.70
2019-05-06T05:18:16.293Z,70.30
2019-05-06T05:20:46.860Z,69.70
2019-05-06T05:23:16.835Z,69.70
2019-05-06T05:25:46.800Z,68.70
2019-05-06T05:28:16.532Z,68.50
2019-05-06T05:30:46.403Z,67.70
2019-05-06T05:33:16.322Z,66.30
2019-05-06T05:35:46.126Z,66.30
2019-05-06T05:38:15.794Z,66.10
2019-05-06T05:40:45.986Z,65.50
2019-05-06T05:43:23.108Z,64.60
2019-05-06T05:45:53.178Z,65.10
2019-05-06T05:48:24.474Z,65.10
2019-05-06T05:50:54.511Z,64.30
2019-05-06T05:53:24.430Z,64.30
2019-05-06T05:55:54.180Z,63.70
2019-05-06T05:58:24.829Z,64.00
2019-05-06T06:01:00.222Z,62.30
2019-05-06T06:03:34.325Z,63.10
2019-05-06T06:06:04.492Z,62.00
2019-05-06T06:08:36.985Z,61.00
2019-05-06T06:11:12.279Z,61.30
2019-05-06T06:13:43.830Z,61.90
2019-05-06T06:16:23.711Z,61.40
2019-05-06T06:19:14.008Z,59.30
2019-05-06T06:21:48.138Z,59.70
2019-05-06T06:24:22.608Z,59.70
2019-05-06T06:26:52.557Z,60.10
2019-05-06T06:29:23.468Z,61.40
2019-05-06T06:32:13.574Z,59.50
2019-05-06T06:35:10.518Z,58.60
2019-05-06T06:37:52.484Z,58.50
2019-05-06T06:40:23.685Z,58.60
2019-05-06T06:42:55.062Z,58.70
2019-05-06T06:45:24.789Z,58.20
2019-05-06T06:47:54.593Z,58.30
2019-05-06T06:50:24.409Z,57.80
2019-05-06T06:52:54.192Z,58.00
2019-05-06T06:55:23.991Z,58.80
2019-05-06T06:58:05.239Z,57.90
2019-05-06T07:00:59.014Z,57.60
2019-05-06T07:03:32.754Z,57.30
2019-05-06T07:06:10.141Z,56.90
2019-05-06T07:08:42.529Z,57.80
2019-05-06T07:11:10.582Z,57.10
2019-05-06T07:13:43.053Z,56.90
2019-05-06T07:16:12.714Z,56.50
2019-05-06T07:18:42.717Z,56.30
2019-05-06T07:21:14.156Z,57.00
2019-05-06T07:23:42.996Z,57.50
2019-05-06T07:26:14.270Z,57.70
2019-05-06T07:28:43.824Z,58.00
2019-05-06T07:31:21.834Z,57.00
2019-05-06T07:33:43.988Z,56.60
2019-05-06T07:36:13.762Z,57.10
2019-05-06T07:38:52.665Z,57.60
2019-05-06T07:41:25.267Z,57.30
2019-05-06T07:44:13.183Z,57.10
2019-05-06T07:46:45.833Z,56.80
2019-05-06T07:49:16.036Z,58.50
2019-05-06T07:51:45.768Z,57.80
2019-05-06T07:54:15.680Z,57.00
2019-05-06T07:56:45.496Z,55.80
2019-05-06T07:59:15.871Z,54.70
2019-05-06T08:01:45.604Z,54.00
2019-05-06T08:04:15.493Z,55.90
2019-05-06T08:06:45.400Z,55.70
2019-05-06T08:09:15.279Z,53.10
2019-05-06T08:11:45.017Z,53.70
2019-05-06T08:14:14.762Z,51.60
2019-05-06T08:16:55.023Z,52.60
2019-05-06T08:19:24.865Z,51.40
2019-05-06T08:21:56.249Z,51.50
2019-05-06T08:24:26.491Z,50.60
2019-05-06T08:26:56.178Z,51.70
2019-05-06T08:29:25.940Z,53.00
2019-05-06T08:31:55.833Z,50.20
2019-05-06T08:34:25.813Z,50.60
2019-05-06T08:36:57.113Z,50.20
2019-05-06T08:39:27.984Z,51.80
2019-05-06T08:41:57.923Z,49.90
2019-05-06T08:44:27.653Z,49.80
2019-05-06T08:46:57.304Z,50.30
2019-05-06T08:49:28.639Z,49.20
2019-05-06T08:52:12.976Z,50.00
2019-05-06T08:54:47.281Z,50.30
2019-05-06T08:57:16.925Z,48.30
2019-05-06T08:59:46.617Z,48.30
2019-05-06T09:02:16.867Z,48.00
2019-05-06T09:04:46.680Z,44.50
2019-05-06T09:07:18.029Z,45.50
2019-05-06T09:09:46.972Z,45.00
2019-05-06T09:12:18.140Z,45.80
2019-05-06T09:14:48.295Z,45.90
2019-05-06T09:17:19.039Z,45.90
2019-05-06T09:19:53.270Z,43.70
2019-05-06T09:22:23.526Z,44.50
2019-05-06T09:24:53.089Z,43.30
2019-05-06T09:27:24.310Z,42.50
2019-05-06T09:29:54.493Z,42.90
2019-05-06T09:32:25.775Z,42.60
2019-05-06T09:34:56.442Z,45.10
2019-05-06T09:37:26.135Z,42.90
2019-05-06T09:39:55.829Z,45.00
2019-05-06T09:42:35.066Z,42.20
2019-05-06T09:45:06.857Z,42.30
2019-05-06T09:47:38.617Z,42.60
2019-05-06T09:50:12.595Z,43.10
2019-05-06T09:52:42.742Z,42.00
2019-05-06T09:55:15.625Z,40.90
2019-05-06T09:58:05.144Z,40.80
2019-05-06T10:00:43.094Z,40.40
2019-05-06T10:03:15.540Z,42.30
2019-05-06T10:05:45.598Z,41.70
2019-05-06T10:08:17.525Z,41.20
2019-05-06T10:10:58.589Z,40.00
2019-05-06T10:13:19.688Z,39.80
2019-05-06T10:15:52.066Z,41.50
2019-05-06T10:18:22.640Z,41.20
2019-05-06T10:20:54.986Z,42.20
2019-05-06T10:23:24.680Z,41.40
2019-05-06T10:25:55.699Z,41.30
2019-05-06T10:28:28.026Z,42.20
2019-05-06T10:30:59.260Z,43.30
2019-05-06T10:33:32.446Z,40.60
2019-05-06T10:36:03.648Z,41.80
2019-05-06T10:38:53.114Z,42.10
2019-05-06T10:41:28.582Z,40.80
2019-05-06T10:44:24.056Z,41.30
2019-05-06T10:46:53.871Z,42.20
2019-05-06T10:49:24.570Z,42.70
2019-05-06T10:52:12.721Z,42.10
2019-05-06T10:55:03.501Z,41.90
2019-05-06T10:57:35.019Z,42.70
2019-05-06T11:00:07.104Z,42.20
2019-05-06T11:02:44.508Z,42.20
2019-05-06T11:05:14.709Z,43.10
2019-05-06T11:07:44.531Z,43.80
2019-05-06T11:10:23.986Z,43.90
2019-05-06T11:12:45.680Z,42.90
2019-05-06T11:15:15.436Z,43.90
2019-05-06T11:17:45.243Z,42.40
2019-05-06T11:20:14.922Z,43.30
2019-05-06T11:22:44.710Z,42.10
2019-05-06T11:25:14.462Z,42.70
2019-05-06T11:27:45.125Z,42.20
2019-05-06T11:30:18.093Z,42.60
2019-05-06T11:33:06.068Z,40.90
2019-05-06T11:35:53.021Z,41.80
2019-05-06T11:38:43.337Z,41.90
2019-05-06T11:41:14.352Z,41.70
2019-05-06T11:43:44.310Z,41.60
2019-05-06T11:46:14.158Z,41.70
2019-05-06T11:48:43.998Z,42.10
2019-05-06T11:51:16.408Z,41.00
2019-05-06T11:53:46.184Z,41.60
2019-05-06T11:56:17.305Z,40.80
2019-05-06T11:58:54.763Z,41.80
2019-05-06T12:01:29.030Z,41.30
2019-05-06T12:03:59.839Z,41.80
2019-05-06T12:06:29.754Z,42.40
2019-05-06T12:08:59.579Z,41.00
2019-05-06T12:11:29.365Z,40.70
2019-05-06T12:13:59.077Z,40.30
2019-05-06T12:16:28.785Z,40.60
2019-05-06T12:18:59.916Z,41.60
2019-05-06T12:21:29.123Z,41.90
2019-05-06T12:23:58.857Z,41.90
2019-05-06T12:26:28.493Z,42.10
2019-05-06T12:28:58.296Z,42.10
2019-05-06T12:31:28.024Z,42.70
2019-05-06T12:33:57.948Z,42.70
2019-05-06T12:36:27.927Z,43.30
2019-05-06T12:39:19.648Z,42.90
2019-05-06T12:41:59.843Z,43.40
2019-05-06T12:44:32.297Z,42.70
2019-05-06T12:47:06.163Z,43.00
2019-05-06T12:49:35.965Z,43.80
2019-05-06T12:52:07.266Z,42.50
2019-05-06T12:54:36.235Z,42.50
2019-05-06T12:57:06.052Z,42.90
2019-05-06T12:59:35.797Z,42.90
2019-05-06T13:02:05.962Z,43.50
2019-05-06T13:04:51.504Z,42.50
2019-05-06T13:07:15.080Z,42.90
2019-05-06T13:09:45.466Z,43.10
2019-05-06T13:12:17.691Z,42.10
2019-05-06T13:14:47.585Z,43.20
2019-05-06T13:17:18.912Z,42.70
2019-05-06T13:19:47.876Z,42.50
2019-05-06T13:22:19.308Z,42.00
2019-05-06T13:24:49.247Z,44.30
2019-05-06T13:27:23.197Z,43.10
2019-05-06T13:29:53.422Z,43.20
2019-05-06T13:32:24.733Z,43.00
2019-05-06T13:34:53.643Z,43.10
2019-05-06T13:37:24.367Z,42.70
2019-05-06T13:39:54.379Z,42.50
2019-05-06T13:42:39.268Z,43.60
2019-05-06T13:45:09.235Z,41.30
2019-05-06T13:47:44.730Z,41.20
2019-05-06T13:50:20.220Z,39.60
2019-05-06T13:53:07.220Z,39.40
2019-05-06T13:55:22.227Z,39.50
2019-05-06T13:57:52.361Z,39.30
2019-05-06T14:00:22.575Z,39.40
2019-05-06T14:02:53.958Z,39.40
2019-05-06T14:05:23.700Z,38.30
2019-05-06T14:07:53.381Z,37.60
2019-05-06T14:10:23.256Z,38.20
2019-05-06T14:12:53.427Z,36.10
2019-05-06T14:15:23.595Z,36.30
2019-05-06T14:17:53.524Z,37.60
2019-05-06T14:20:24.418Z,38.20
2019-05-06T14:22:54.470Z,38.60
2019-05-06T14:25:43.513Z,38.00
2019-05-06T14:28:32.402Z,38.00
2019-05-06T14:31:06.209Z,38.30
2019-05-06T14:33:36.071Z,40.20
2019-05-06T14:36:07.134Z,40.40
2019-05-06T14:38:38.778Z,40.80
2019-05-06T14:41:15.495Z,40.10
2019-05-06T14:43:58.010Z,40.60
2019-05-06T14:46:29.340Z,38.70
2019-05-06T14:49:04.396Z,38.10
2019-05-06T14:51:35.761Z,36.50
2019-05-06T14:54:05.637Z,36.30
2019-05-06T14:56:47.335Z,35.80
2019-05-06T14:59:17.092Z,36.20
2019-05-06T15:01:46.880Z,35.10
2019-05-06T15:04:16.665Z,35.20
2019-05-06T15:06:46.413Z,35.70
2019-05-06T15:09:16.400Z,36.80
2019-05-06T15:11:46.194Z,36.20
2019-05-06T15:14:16.032Z,36.50
2019-05-06T15:16:45.854Z,36.50
2019-05-06T15:19:15.647Z,36.10
2019-05-06T15:21:49.852Z,36.40
2019-05-06T15:24:21.881Z,38.20
2019-05-06T15:26:52.187Z,37.50
2019-05-06T15:29:23.807Z,38.40
2019-05-06T15:32:02.742Z,37.70
2019-05-06T15:34:44.388Z,38.00
2019-05-06T15:37:14.937Z,39.00
2019-05-06T15:42:34.244Z,38.70
2019-05-06T15:45:08.334Z,38.50
2019-05-06T15:47:38.117Z,39.50
2019-05-06T15:50:08.873Z,40.00
2019-05-06T15:52:38.713Z,39.60
2019-05-06T15:55:08.763Z,39.10
2019-05-06T15:57:39.994Z,39.40
2019-05-06T16:00:09.953Z,38.70
2019-05-06T16:02:41.882Z,39.70
2019-05-06T16:05:18.605Z,39.80
2019-05-06T16:07:43.457Z,40.60
2019-05-06T16:10:14.541Z,40.50
2019-05-06T16:12:48.358Z,41.60
2019-05-06T16:15:19.706Z,40.00
2019-05-06T16:17:49.430Z,40.20
2019-05-06T16:20:22.172Z,41.10
2019-05-06T16:22:53.599Z,39.80
2019-05-06T16:25:22.567Z,39.40
2019-05-06T16:27:54.881Z,39.60
2019-05-06T16:30:24.747Z,39.70
2019-05-06T16:32:54.615Z,40.40
2019-05-06T16:35:24.587Z,40.40
2019-05-06T16:37:54.365Z,41.10
2019-05-06T16:40:24.355Z,40.30
2019-05-06T16:42:54.713Z,41.20
2019-05-06T16:45:24.475Z,40.60
2019-05-06T16:47:54.186Z,41.10
2019-05-06T16:50:29.002Z,41.30
2019-05-06T16:52:57.274Z,41.30
2019-05-06T16:55:28.871Z,41.30
2019-05-06T16:58:06.122Z,41.70
2019-05-06T17:00:36.785Z,42.30
2019-05-06T17:03:25.450Z,42.10
2019-05-06T17:06:15.402Z,43.00
2019-05-06T17:08:46.962Z,43.70
2019-05-06T17:11:27.141Z,43.00
2019-05-06T17:13:48.341Z,42.70
2019-05-06T17:16:18.452Z,42.90
2019-05-06T17:18:48.489Z,43.10
2019-05-06T17:21:18.231Z,43.20
2019-05-06T17:23:48.019Z,44.20
2019-05-06T17:26:17.840Z,44.20
2019-05-06T17:28:49.529Z,44.00
2019-05-06T17:31:32.279Z,43.90
2019-05-06T17:34:03.781Z,45.00
2019-05-06T17:36:35.092Z,44.60
2019-05-06T17:39:10.410Z,45.30
2019-05-06T17:41:47.666Z,44.90
2019-05-06T17:44:12.362Z,46.90
2019-05-06T17:46:49.704Z,46.50
2019-05-06T17:49:23.634Z,46.90
2019-05-06T17:52:13.081Z,45.60
2019-05-06T17:54:44.451Z,46.40
2019-05-06T17:57:14.500Z,46.10
2019-05-06T17:59:44.602Z,46.70
2019-05-06T18:02:19.380Z,47.90
2019-05-06T18:04:49.556Z,45.70
2019-05-06T18:07:22.142Z,46.70
2019-05-06T18:09:52.211Z,47.40
2019-05-06T18:12:25.180Z,46.00
2019-05-06T18:14:55.575Z,46.30
2019-05-06T18:17:25.303Z,47.50
2019-05-06T18:19:55.297Z,46.40
2019-05-06T18:22:25.361Z,46.30
2019-05-06T18:24:58.210Z,46.70
2019-05-06T18:27:28.706Z,47.00
2019-05-06T18:30:11.426Z,47.50
2019-05-06T18:32:33.129Z,48.30
2019-05-06T18:35:03.111Z,48.00
2019-05-06T18:37:33.325Z,48.00
2019-05-06T18:40:03.282Z,48.00
2019-05-06T18:42:33.463Z,47.70
2019-05-06T18:45:03.599Z,48.60
2019-05-06T18:47:33.308Z,48.40
2019-05-06T18:50:03.106Z,48.30
2019-05-06T18:52:32.892Z,48.80
2019-05-06T18:55:02.698Z,49.20
2019-05-06T18:57:33.096Z,48.80
2019-05-06T19:00:03.312Z,49.60
2019-05-06T19:02:35.085Z,49.30
2019-05-06T19:05:10.359Z,50.50
2019-05-06T19:07:40.128Z,49.50
2019-05-06T19:10:22.383Z,50.10
2019-05-06T19:12:52.794Z,50.30
2019-05-06T19:15:24.614Z,49.70
2019-05-06T19:18:02.278Z,51.00
2019-05-06T19:20:35.034Z,51.50
2019-05-06T19:23:06.250Z,51.30
2019-05-06T19:25:39.856Z,51.00
2019-05-06T19:28:16.250Z,53.20
2019-05-06T19:30:47.794Z,53.00
2019-05-06T19:33:17.528Z,52.40
2019-05-06T19:35:52.179Z,54.30
2019-05-06T19:38:24.461Z,53.70
2019-05-06T19:40:57.904Z,55.00
2019-05-06T19:43:27.071Z,54.20
2019-05-06T19:45:56.681Z,54.90
2019-05-06T19:48:26.517Z,55.00
2019-05-06T19:50:56.295Z,55.80
2019-05-06T19:53:26.185Z,55.10
2019-05-06T19:55:56.388Z,55.90
2019-05-06T19:58:27.396Z,56.10
2019-05-06T20:00:57.412Z,55.70
2019-05-06T20:03:27.225Z,55.50
2019-05-06T20:05:58.533Z,56.00
2019-05-06T20:08:32.574Z,56.10
2019-05-06T20:11:04.348Z,56.50
2019-05-06T20:13:34.063Z,57.00
2019-05-06T20:16:03.775Z,57.50
2019-05-06T20:18:33.665Z,58.20
2019-05-06T20:21:03.469Z,58.50
2019-05-06T20:23:33.257Z,58.50
2019-05-06T20:26:03.162Z,59.50
2019-05-06T20:28:33.943Z,59.70
2019-05-06T20:31:03.820Z,59.80
2019-05-06T20:33:33.537Z,59.70
2019-05-06T20:36:03.222Z,60.60
2019-05-06T20:38:33.674Z,60.30
2019-05-06T20:41:03.592Z,60.50
2019-05-06T20:43:33.404Z,59.90
2019-05-06T20:46:05.621Z,60.50
2019-05-06T20:48:35.977Z,60.70
2019-05-06T20:51:06.443Z,59.60
2019-05-06T20:53:38.576Z,60.30
2019-05-06T20:56:21.968Z,59.60
2019-05-06T20:58:52.859Z,61.00
2019-05-06T21:01:22.919Z,61.10
2019-05-06T21:03:52.958Z,61.70
2019-05-06T21:06:23.320Z,61.80
2019-05-06T21:08:56.759Z,61.60
2019-05-06T21:11:29.327Z,62.30
2019-05-06T21:13:58.827Z,60.70
2019-05-06T21:16:28.651Z,60.20
2019-05-06T21:18:58.715Z,61.10
2019-05-06T21:21:34.318Z,61.40
2019-05-06T21:29:03.223Z,63.30
2019-05-06T21:31:36.273Z,62.50
2019-05-06T21:34:07.136Z,62.20
2019-05-06T21:36:37.658Z,62.40
2019-05-06T21:39:09.541Z,63.90
2019-05-06T21:41:42.480Z,63.00
2019-05-06T21:44:13.349Z,62.50
2019-05-06T21:46:43.640Z,62.30
2019-05-06T21:49:15.126Z,63.80
2019-05-06T21:51:46.506Z,64.60
2019-05-06T21:54:15.435Z,64.60
2019-05-06T21:56:47.000Z,64.20
2019-05-06T21:59:17.022Z,65.30
2019-05-06T22:04:18.471Z,65.20
2019-05-06T22:06:48.712Z,65.30
2019-05-06T22:09:18.939Z,65.20
2019-05-06T22:11:48.839Z,65.10
2019-05-06T22:14:18.665Z,64.60
2019-05-06T22:17:33.173Z,64.80
2019-05-06T22:20:03.439Z,64.60
2019-05-06T22:22:34.794Z,64.80
2019-05-06T22:25:04.798Z,64.30
2019-05-06T22:27:35.519Z,64.20
2019-05-06T22:30:06.963Z,63.90
2019-05-06T22:32:46.740Z,63.70
2019-05-06T22:35:17.323Z,65.10
2019-05-06T22:37:47.178Z,63.70
2019-05-06T22:40:16.908Z,63.70
2019-05-06T22:45:16.171Z,64.90
2019-05-06T22:50:15.405Z,66.30
2019-05-06T22:52:45.196Z,65.50
2019-05-06T22:55:15.286Z,66.10
2019-05-06T22:57:45.076Z,66.60
2019-05-06T23:00:22.408Z,67.50
2019-05-06T23:02:54.628Z,66.80
2019-05-06T23:05:24.406Z,67.10
2019-05-06T23:07:54.339Z,66.50
2019-05-06T23:10:24.873Z,65.80
2019-05-06T23:12:54.874Z,67.30
2019-05-06T23:15:24.681Z,66.90
2019-05-06T23:17:54.495Z,67.40
2019-05-06T23:20:24.575Z,67.00
2019-05-06T23:22:54.422Z,67.20
2019-05-06T23:25:24.236Z,67.60
2019-05-06T23:27:54.041Z,68.30
2019-05-06T23:30:24.004Z,68.00
2019-05-06T23:32:53.846Z,69.00
2019-05-06T23:35:23.879Z,67.10
2019-05-06T23:38:29.810Z,67.90
2019-05-06T23:41:36.187Z,68.60
2019-05-06T23:44:46.067Z,68.80
2019-05-06T23:47:50.409Z,69.10
2019-05-06T23:50:56.769Z,69.40
2019-05-06T23:54:03.217Z,69.80
2019-05-06T23:56:43.737Z,69.40
2019-05-06T23:59:16.128Z,70.10
